Time;durP1;ratioP1;P1;durP2;ratioP2;P2;SDS_P1;SDS_P2;PMS_P1;PMS_P2;Temp;Humidity;BMP_temperature;BMP_pressure;BME280_temperature;BME280_humidity;BME280_pressure;Samples;Min_cycle;Max_cycle;Signal;HPM_P1;HPM_P2
2022/09/09 00:02:30;;;;;;;8.00;7.60;;;15.50;1.00;;;;;;6303447;28;20640;-54
2022/09/09 00:05:42;;;;;;;8.87;8.17;;;15.50;1.00;;;;;;6306164;28;20405;-53
2022/09/09 00:08:55;;;;;;;9.17;8.37;;;15.40;1.00;;;;;;6323272;28;20243;-54
2022/09/09 00:12:04;;;;;;;10.33;9.53;;;15.40;1.00;;;;;;6315281;28;20240;-53
2022/09/09 00:15:14;;;;;;;9.77;9.13;;;15.30;1.00;;;;;;6304438;28;20233;-53
2022/09/09 00:18:25;;;;;;;9.77;9.17;;;15.40;1.00;;;;;;6304232;28;20233;-54
2022/09/09 00:21:34;;;;;;;10.67;9.87;;;15.40;1.00;;;;;;6300025;28;20624;-53
2022/09/09 00:24:42;;;;;;;9.53;9.03;;;15.40;1.00;;;;;;6306429;28;20232;-53
2022/09/09 00:27:47;;;;;;;8.67;8.17;;;15.30;1.00;;;;;;6312398;28;20237;-53
2022/09/09 00:30:50;;;;;;;9.63;9.03;;;15.30;1.00;;;;;;6299288;28;20761;-52
2022/09/09 00:33:56;;;;;;;10.03;9.30;;;15.30;1.00;;;;;;6308629;28;20240;-54
2022/09/09 00:37:05;;;;;;;10.00;9.30;;;15.30;1.00;;;;;;6333481;28;20244;-53
2022/09/09 00:40:22;;;;;;;8.63;8.13;;;15.20;1.00;;;;;;6312431;28;20551;-54
2022/09/09 00:43:30;;;;;;;11.00;10.03;;;15.20;1.00;;;;;;6295193;28;20241;-53
2022/09/09 00:46:57;;;;;;;10.50;9.80;;;15.10;1.00;;;;;;6281146;28;20739;-53
2022/09/09 00:50:11;;;;;;;12.23;11.23;;;15.10;1.00;;;;;;6306730;28;20233;-54
2022/09/09 00:53:27;;;;;;;12.70;11.80;;;15.10;1.00;;;;;;6320852;28;20724;-54
2022/09/09 00:56:42;;;;;;;11.33;10.50;;;15.10;1.00;;;;;;6325660;28;20224;-53
2022/09/09 00:59:48;;;;;;;10.47;9.77;;;15.00;1.00;;;;;;6287015;28;20240;-54
2022/09/09 01:03:20;;;;;;;11.27;10.27;;;15.00;1.00;;;;;;6291139;28;20244;-54
2022/09/09 01:06:38;;;;;;;10.03;9.47;;;15.00;1.00;;;;;;6301264;28;20722;-53
2022/09/09 01:09:52;;;;;;;9.30;8.70;;;15.00;1.00;;;;;;6289529;28;20233;-53
2022/09/09 01:12:59;;;;;;;10.03;9.37;;;15.00;1.00;;;;;;6335518;28;20614;-54
2022/09/09 01:16:05;;;;;;;10.87;10.27;;;15.00;1.00;;;;;;6316491;28;20781;-53
2022/09/09 01:19:18;;;;;;;11.30;10.60;;;14.90;1.00;;;;;;6289139;28;20237;-54
2022/09/09 01:22:30;;;;;;;9.97;9.37;;;14.90;1.00;;;;;;6305483;28;20229;-53
2022/09/09 01:26:11;;;;;;;11.20;10.40;;;14.90;1.00;;;;;;6293136;28;20224;-53
2022/09/09 01:29:17;;;;;;;10.57;9.87;;;14.90;1.00;;;;;;6308511;28;20225;-54
2022/09/09 01:32:42;;;;;;;10.33;9.57;;;14.90;1.00;;;;;;6311484;28;20241;-54
2022/09/09 01:35:51;;;;;;;10.60;9.80;;;14.90;1.00;;;;;;6305568;28;20236;-54
2022/09/09 01:38:54;;;;;;;10.03;9.43;;;14.80;1.00;;;;;;6305867;28;20428;-54
2022/09/09 01:41:58;;;;;;;9.13;8.53;;;14.80;1.00;;;;;;6285055;28;20244;-54
2022/09/09 01:45:02;;;;;;;9.17;8.67;;;14.80;1.00;;;;;;6290731;28;20225;-54
2022/09/09 01:48:05;;;;;;;7.73;7.23;;;14.80;1.00;;;;;;6289612;28;20229;-53
2022/09/09 01:51:10;;;;;;;9.10;8.60;;;14.80;1.00;;;;;;6300500;28;20232;-54
2022/09/09 01:54:13;;;;;;;9.63;8.83;;;14.80;1.00;;;;;;6299214;28;20222;-54
2022/09/09 01:57:22;;;;;;;9.57;8.83;;;14.80;1.00;;;;;;6307549;28;20236;-53
2022/09/09 02:00:26;;;;;;;9.03;8.43;;;14.70;1.00;;;;;;6308859;28;20604;-53
2022/09/09 02:03:33;;;;;;;9.80;8.93;;;14.70;1.00;;;;;;6310137;28;20448;-53
2022/09/09 02:06:38;;;;;;;10.53;9.83;;;14.70;1.00;;;;;;6302549;28;20224;-53
2022/09/09 02:09:51;;;;;;;9.90;8.90;;;14.70;1.00;;;;;;6300309;28;20228;-54
2022/09/09 02:12:58;;;;;;;9.10;8.50;;;14.70;1.00;;;;;;6312866;28;20539;-53
2022/09/09 02:16:08;;;;;;;10.13;9.40;;;14.70;1.00;;;;;;6292038;28;20597;-54
2022/09/09 02:19:16;;;;;;;10.13;9.50;;;14.70;1.00;;;;;;6295130;28;20225;-54
2022/09/09 02:22:23;;;;;;;10.17;9.20;;;14.60;1.00;;;;;;6288894;28;20240;-53
2022/09/09 02:25:29;;;;;;;10.63;9.80;;;14.60;1.00;;;;;;6296488;28;20240;-54
2022/09/09 02:28:34;;;;;;;10.20;9.50;;;14.60;1.00;;;;;;6296622;28;20236;-53
2022/09/09 02:31:40;;;;;;;10.40;9.70;;;14.60;1.00;;;;;;6296664;28;20501;-53
2022/09/09 02:34:46;;;;;;;8.60;7.90;;;14.60;1.00;;;;;;6292851;28;20229;-54
2022/09/09 02:37:54;;;;;;;10.53;9.80;;;14.60;1.00;;;;;;6298851;28;20736;-56
2022/09/09 02:40:58;;;;;;;10.17;9.47;;;14.50;1.00;;;;;;6295589;28;20229;-55
2022/09/09 02:44:02;;;;;;;10.40;9.60;;;14.50;1.00;;;;;;6298454;28;20229;-55
2022/09/09 02:47:20;;;;;;;9.90;9.10;;;14.50;1.00;;;;;;6295742;28;20252;-53
2022/09/09 02:50:31;;;;;;;7.90;7.50;;;14.40;1.00;;;;;;6296344;28;20684;-54
2022/09/09 02:53:45;;;;;;;8.60;8.10;;;14.40;1.00;;;;;;6298827;28;20251;-53
2022/09/09 02:56:54;;;;;;;8.53;8.03;;;14.40;1.00;;;;;;6304564;28;20247;-53
2022/09/09 02:59:59;;;;;;;9.53;8.83;;;14.40;1.00;;;;;;6309739;28;20228;-53
2022/09/09 03:03:03;;;;;;;9.80;9.10;;;14.40;1.00;;;;;;6299778;28;20237;-54
2022/09/09 03:06:06;;;;;;;8.27;7.80;;;14.30;1.00;;;;;;6311127;28;20843;-52
2022/09/09 03:09:10;;;;;;;7.77;7.27;;;14.40;1.00;;;;;;6288682;28;20233;-55
2022/09/09 03:12:13;;;;;;;10.03;9.27;;;14.30;1.00;;;;;;6319185;28;20287;-54
2022/09/09 03:15:17;;;;;;;9.67;9.07;;;14.30;1.00;;;;;;6317082;28;20619;-53
2022/09/09 03:18:21;;;;;;;9.23;8.60;;;14.30;1.00;;;;;;6314482;28;20618;-54
2022/09/09 03:21:24;;;;;;;11.33;10.53;;;14.40;1.00;;;;;;6313077;28;20798;-53
2022/09/09 03:24:27;;;;;;;9.30;8.67;;;14.30;1.00;;;;;;6297787;28;20487;-53
2022/09/09 03:27:30;;;;;;;9.83;8.97;;;14.30;1.00;;;;;;6308072;28;20240;-54
2022/09/09 03:30:33;;;;;;;10.90;10.10;;;14.30;1.00;;;;;;6317297;28;20657;-54
2022/09/09 03:33:38;;;;;;;10.50;9.63;;;14.30;1.00;;;;;;6284831;28;20616;-53
2022/09/09 03:36:41;;;;;;;9.33;8.57;;;14.20;1.00;;;;;;6311858;28;20235;-58
2022/09/09 03:39:54;;;;;;;8.83;8.33;;;14.20;1.00;;;;;;6300353;28;20226;-54
2022/09/09 03:42:58;;;;;;;8.57;8.07;;;14.20;1.00;;;;;;6304511;28;20696;-54
2022/09/09 03:46:01;;;;;;;7.80;7.37;;;14.10;1.00;;;;;;6281590;28;21410;-54
2022/09/09 03:49:05;;;;;;;8.30;7.80;;;14.10;1.00;;;;;;6307684;28;20231;-54
2022/09/09 03:52:10;;;;;;;8.33;7.80;;;14.10;1.00;;;;;;6295216;28;20233;-54
2022/09/09 03:55:16;;;;;;;7.90;7.43;;;14.10;1.00;;;;;;6308104;28;20233;-53
2022/09/09 03:58:19;;;;;;;9.27;8.57;;;14.10;1.00;;;;;;6307595;28;21571;-53
2022/09/09 04:01:22;;;;;;;8.10;7.53;;;14.10;1.00;;;;;;6301137;28;20233;-54
2022/09/09 04:04:26;;;;;;;8.70;8.20;;;14.00;1.00;;;;;;6303328;28;20727;-53
2022/09/09 04:07:29;;;;;;;7.47;7.13;;;14.00;1.00;;;;;;6306739;28;20232;-54
2022/09/09 04:10:32;;;;;;;7.47;7.07;;;14.00;1.00;;;;;;6308308;28;20237;-54
2022/09/09 04:13:37;;;;;;;7.23;6.90;;;14.00;1.00;;;;;;6306696;28;20220;-53
2022/09/09 04:16:44;;;;;;;6.50;6.20;;;13.90;1.00;;;;;;6308966;28;20331;-55
2022/09/09 04:19:48;;;;;;;6.87;6.57;;;13.90;1.00;;;;;;6316992;28;20236;-54
2022/09/09 04:22:51;;;;;;;5.87;5.63;;;13.90;1.00;;;;;;6316386;28;20240;-53
2022/09/09 04:25:56;;;;;;;6.50;6.30;;;13.90;1.00;;;;;;6310341;28;20232;-54
2022/09/09 04:28:59;;;;;;;7.17;6.77;;;13.90;1.00;;;;;;6313936;28;20240;-53
2022/09/09 04:32:03;;;;;;;6.40;6.13;;;13.80;1.00;;;;;;6279385;28;20240;-54
2022/09/09 04:35:08;;;;;;;5.77;5.53;;;13.90;1.00;;;;;;6315143;28;20317;-54
2022/09/09 04:38:14;;;;;;;5.80;5.60;;;13.80;1.00;;;;;;6316541;28;20236;-55
2022/09/09 04:41:20;;;;;;;6.07;5.77;;;13.80;1.00;;;;;;6300887;28;20241;-54
2022/09/09 04:44:23;;;;;;;6.33;6.13;;;13.80;1.00;;;;;;6320783;28;20482;-54
2022/09/09 04:47:27;;;;;;;6.67;6.33;;;13.80;1.00;;;;;;6315537;28;20856;-54
2022/09/09 04:50:32;;;;;;;6.63;6.33;;;13.90;1.00;;;;;;6306578;28;20588;-55
2022/09/09 04:53:35;;;;;;;7.97;7.57;;;13.90;1.00;;;;;;6296631;28;20220;-55
2022/09/09 04:56:38;;;;;;;6.60;6.20;;;13.90;1.00;;;;;;6302989;28;20232;-54
2022/09/09 04:59:41;;;;;;;9.87;9.03;;;13.90;1.00;;;;;;6305200;28;20889;-53
2022/09/09 05:02:44;;;;;;;7.33;7.00;;;14.00;1.00;;;;;;6312727;28;20232;-55
2022/09/09 05:05:48;;;;;;;8.50;8.00;;;14.10;1.00;;;;;;6320226;28;20236;-54
2022/09/09 05:08:52;;;;;;;8.67;8.07;;;14.10;1.00;;;;;;6298796;28;20239;-54
2022/09/09 05:11:55;;;;;;;8.63;8.03;;;14.10;1.00;;;;;;6308555;28;20243;-54
2022/09/09 05:14:58;;;;;;;7.53;7.10;;;14.10;1.00;;;;;;6314011;28;20727;-53
2022/09/09 05:18:02;;;;;;;7.07;6.67;;;14.20;1.00;;;;;;6312398;28;20232;-54
2022/09/09 05:21:08;;;;;;;7.13;6.77;;;14.20;1.00;;;;;;6304102;28;20255;-53
2022/09/09 05:24:10;;;;;;;6.07;5.83;;;14.30;1.00;;;;;;6316574;28;20228;-53
2022/09/09 05:27:14;;;;;;;6.97;6.50;;;14.40;1.00;;;;;;6293957;28;20863;-53
2022/09/09 05:30:18;;;;;;;8.23;7.63;;;14.50;1.00;;;;;;6294271;28;20226;-52
2022/09/09 05:33:22;;;;;;;6.50;6.20;;;14.50;1.00;;;;;;6294398;28;20490;-53
2022/09/09 05:36:26;;;;;;;6.70;6.40;;;14.60;1.00;;;;;;6305283;28;20624;-54
2022/09/09 05:39:29;;;;;;;6.87;6.53;;;14.60;1.00;;;;;;6303376;28;20642;-55
2022/09/09 05:42:32;;;;;;;7.03;6.57;;;14.70;1.00;;;;;;6298868;28;20229;-55
2022/09/09 05:45:36;;;;;;;6.37;6.00;;;14.70;1.00;;;;;;6316424;28;20252;-55
2022/09/09 05:48:40;;;;;;;7.63;7.00;;;14.80;1.00;;;;;;6307941;28;20237;-54
2022/09/09 05:51:44;;;;;;;6.20;6.00;;;14.80;1.00;;;;;;6302190;28;20229;-53
2022/09/09 05:54:47;;;;;;;7.73;7.03;;;14.90;1.00;;;;;;6302475;28;20244;-54
2022/09/09 05:57:52;;;;;;;7.67;6.93;;;14.90;1.00;;;;;;6303717;28;20244;-54
2022/09/09 06:01:02;;;;;;;6.30;5.97;;;15.00;1.00;;;;;;6309373;28;20264;-55
2022/09/09 06:04:05;;;;;;;6.83;6.33;;;15.10;1.00;;;;;;6307582;28;20225;-54
2022/09/09 06:07:10;;;;;;;6.90;6.30;;;15.20;1.00;;;;;;6275066;28;20232;-54
2022/09/09 06:10:13;;;;;;;8.80;5.07;;;15.30;1.00;;;;;;6310666;28;20232;-53
2022/09/09 06:13:17;;;;;;;5.93;5.60;;;15.40;1.00;;;;;;6307537;28;20232;-57
2022/09/09 06:16:23;;;;;;;6.97;5.63;;;15.50;1.00;;;;;;6312836;28;20224;-54
2022/09/09 06:19:26;;;;;;;5.03;4.70;;;15.70;1.00;;;;;;6310157;28;20621;-55
2022/09/09 06:22:31;;;;;;;5.97;5.57;;;16.20;1.00;;;;;;6310342;28;20228;-54
2022/09/09 06:25:34;;;;;;;5.00;4.80;;;16.40;1.00;;;;;;6310921;28;20259;-55
2022/09/09 06:28:37;;;;;;;5.27;4.77;;;16.50;1.00;;;;;;6324720;28;20597;-54
2022/09/09 06:31:41;;;;;;;5.30;4.80;;;16.60;1.00;;;;;;6315739;28;20522;-53
2022/09/09 06:34:45;;;;;;;5.30;4.87;;;16.60;1.00;;;;;;6316349;28;20616;-55
2022/09/09 06:37:49;;;;;;;5.10;4.67;;;16.60;1.00;;;;;;6305510;28;20715;-55
2022/09/09 06:40:54;;;;;;;5.70;4.67;;;16.60;1.00;;;;;;6329496;28;20240;-54
2022/09/09 06:43:57;;;;;;;7.90;4.90;;;16.40;1.00;;;;;;6318668;28;20242;-54
2022/09/09 06:47:00;;;;;;;4.83;4.43;;;16.40;1.00;;;;;;6313272;28;20838;-54
2022/09/09 06:50:05;;;;;;;5.73;4.70;;;16.30;1.00;;;;;;6315505;28;20232;-53
2022/09/09 06:53:09;;;;;;;4.93;4.57;;;16.20;1.00;;;;;;6313263;28;20245;-53
2022/09/09 06:56:21;;;;;;;6.43;4.57;;;16.30;1.00;;;;;;6304095;28;20228;-53
2022/09/09 06:59:24;;;;;;;4.60;4.30;;;16.30;1.00;;;;;;6311759;28;20237;-53
2022/09/09 07:02:28;;;;;;;4.27;3.97;;;16.60;1.00;;;;;;6303969;28;20239;-55
2022/09/09 07:05:31;;;;;;;4.20;3.90;;;17.00;1.00;;;;;;6310960;28;20581;-55
2022/09/09 07:08:35;;;;;;;4.53;4.23;;;17.10;1.00;;;;;;6311551;28;20225;-54
2022/09/09 07:11:41;;;;;;;3.67;3.47;;;17.30;1.00;;;;;;6306526;28;20768;-54
2022/09/09 07:14:43;;;;;;;4.73;4.30;;;17.30;1.00;;;;;;6311984;28;20229;-54
2022/09/09 07:17:48;;;;;;;3.73;3.53;;;17.30;1.00;;;;;;6309895;28;20228;-54
2022/09/09 07:20:56;;;;;;;3.83;3.53;;;17.30;1.00;;;;;;6308157;28;20244;-52
2022/09/09 07:24:02;;;;;;;3.80;3.40;;;17.40;1.00;;;;;;6311266;28;20236;-53
2022/09/09 07:27:05;;;;;;;3.53;3.33;;;17.50;1.00;;;;;;6321777;28;20694;-54
2022/09/09 07:30:10;;;;;;;3.30;3.20;;;17.60;1.00;;;;;;6302032;28;20299;-56
2022/09/09 07:33:20;;;;;;;4.07;3.77;;;17.50;1.00;;;;;;6308393;28;20320;-54
2022/09/09 07:36:25;;;;;;;5.00;3.60;;;17.60;1.00;;;;;;6306163;28;20228;-54
2022/09/09 07:39:36;;;;;;;4.97;3.23;;;17.80;1.00;;;;;;6303561;28;20236;-54
2022/09/09 07:42:39;;;;;;;4.60;3.57;;;17.90;1.00;;;;;;6318984;28;20765;-56
2022/09/09 07:45:42;;;;;;;3.70;3.50;;;18.10;1.00;;;;;;6309659;28;20241;-54
2022/09/09 07:48:46;;;;;;;4.83;3.40;;;18.30;1.00;;;;;;6307553;28;20596;-55
2022/09/09 07:51:49;;;;;;;2.80;2.80;;;18.50;1.00;;;;;;6315377;28;20236;-54
2022/09/09 07:54:53;;;;;;;3.37;3.17;;;18.70;1.00;;;;;;6298463;28;20229;-53
2022/09/09 07:58:09;;;;;;;3.40;3.10;;;18.70;1.00;;;;;;6313449;28;20224;-53
2022/09/09 08:01:20;;;;;;;3.30;3.20;;;18.80;1.00;;;;;;6315760;28;20617;-54
2022/09/09 08:04:26;;;;;;;6.27;3.10;;;18.90;1.00;;;;;;6312883;28;20268;-53
2022/09/09 08:07:29;;;;;;;3.47;3.03;;;19.00;1.00;;;;;;6306749;28;20267;-53
2022/09/09 08:10:33;;;;;;;3.57;3.10;;;19.10;1.00;;;;;;6308684;28;20236;-53
2022/09/09 08:13:36;;;;;;;3.33;3.03;;;19.10;1.00;;;;;;6307945;28;20721;-58
2022/09/09 08:16:42;;;;;;;3.33;3.10;;;19.20;1.00;;;;;;6311993;28;20615;-54
2022/09/09 08:19:55;;;;;;;3.40;3.10;;;19.20;1.00;;;;;;6308617;28;20244;-54
2022/09/09 08:22:58;;;;;;;3.43;3.17;;;19.20;1.00;;;;;;6312731;28;20244;-54
2022/09/09 08:26:09;;;;;;;3.40;3.00;;;19.00;1.00;;;;;;6305750;28;20248;-54
2022/09/09 08:29:13;;;;;;;3.13;2.93;;;19.00;1.00;;;;;;6319973;28;20239;-55
2022/09/09 08:32:18;;;;;;;3.90;2.97;;;19.00;1.00;;;;;;6307014;28;20233;-54
2022/09/09 08:35:21;;;;;;;3.47;3.10;;;18.90;1.00;;;;;;6307795;28;20897;-55
2022/09/09 08:38:24;;;;;;;2.80;2.50;;;18.90;1.00;;;;;;6308730;28;20228;-53
2022/09/09 08:42:01;;;;;;;2.97;2.77;;;18.90;1.00;;;;;;6313848;28;20233;-53
2022/09/09 08:45:31;;;;;;;3.37;3.13;;;19.00;1.00;;;;;;6304138;28;20232;-52
2022/09/09 08:48:47;;;;;;;2.97;2.77;;;18.90;1.00;;;;;;6317676;28;20221;-53
2022/09/09 08:51:51;;;;;;;3.60;3.20;;;18.90;1.00;;;;;;6310941;28;20233;-54
2022/09/09 08:54:58;;;;;;;3.60;3.30;;;18.90;1.00;;;;;;6305072;28;20244;-54
2022/09/09 08:58:10;;;;;;;3.23;3.03;;;19.00;1.00;;;;;;6317031;28;20275;-54
2022/09/09 09:01:44;;;;;;;3.67;3.10;;;18.90;1.00;;;;;;6306487;28;20232;-55
2022/09/09 09:05:00;;;;;;;3.40;3.10;;;18.90;1.00;;;;;;6304810;28;20228;-54
2022/09/09 09:08:11;;;;;;;5.87;3.20;;;19.10;1.00;;;;;;6310408;28;21326;-53
2022/09/09 09:11:14;;;;;;;3.67;3.47;;;19.20;1.00;;;;;;6304193;28;20247;-54
2022/09/09 09:14:23;;;;;;;3.97;3.00;;;19.50;1.00;;;;;;6313492;28;20235;-53
2022/09/09 09:17:31;;;;;;;2.90;2.70;;;19.80;1.00;;;;;;6307256;28;20229;-53
2022/09/09 09:20:43;;;;;;;3.30;3.03;;;20.10;1.00;;;;;;6310473;28;20239;-55
2022/09/09 09:23:55;;;;;;;3.90;3.50;;;20.20;1.00;;;;;;6313374;28;20243;-54
2022/09/09 09:26:59;;;;;;;2.60;2.50;;;20.40;1.00;;;;;;6313548;28;20234;-54
2022/09/09 09:30:14;;;;;;;3.27;2.73;;;20.30;1.00;;;;;;6305614;28;20624;-53
2022/09/09 09:33:36;;;;;;;2.80;2.60;;;20.60;1.00;;;;;;6301202;28;20351;-53
2022/09/09 09:36:44;;;;;;;4.60;3.10;;;20.80;1.00;;;;;;6304199;28;20628;-55
2022/09/09 09:39:48;;;;;;;2.47;2.27;;;21.00;1.00;;;;;;6308944;28;20324;-54
2022/09/09 09:43:09;;;;;;;3.43;2.70;;;21.20;1.00;;;;;;6304322;28;20239;-55
2022/09/09 09:46:23;;;;;;;5.13;2.70;;;21.30;1.00;;;;;;6307914;28;20228;-55
2022/09/09 09:49:26;;;;;;;2.70;2.50;;;21.20;1.00;;;;;;6306859;28;20240;-52
2022/09/09 09:52:31;;;;;;;2.50;2.40;;;21.10;1.00;;;;;;6317940;28;20239;-53
2022/09/09 09:55:36;;;;;;;2.73;2.53;;;21.20;1.00;;;;;;6300479;28;20225;-53
2022/09/09 09:58:53;;;;;;;3.03;2.80;;;21.20;1.00;;;;;;6301282;28;20233;-54
2022/09/09 10:02:16;;;;;;;2.97;2.77;;;21.20;1.00;;;;;;6306758;28;20698;-53
2022/09/09 10:05:23;;;;;;;5.20;3.00;;;21.30;1.00;;;;;;6309796;28;20487;-54
2022/09/09 10:08:29;;;;;;;4.60;2.93;;;21.40;1.00;;;;;;6306897;28;20337;-55
2022/09/09 10:11:49;;;;;;;3.07;2.77;;;21.40;1.00;;;;;;6310980;28;20297;-55
2022/09/09 10:14:59;;;;;;;3.10;2.90;;;21.40;1.00;;;;;;6313927;28;20247;-54
2022/09/09 10:18:26;;;;;;;3.73;2.70;;;21.40;1.00;;;;;;6303450;28;20672;-56
2022/09/09 10:21:55;;;;;;;2.47;2.37;;;21.50;1.00;;;;;;6307841;28;20241;-56
2022/09/09 10:25:28;;;;;;;5.03;2.60;;;21.60;1.00;;;;;;6299401;28;20373;-54
2022/09/09 10:28:47;;;;;;;2.70;2.60;;;21.80;1.00;;;;;;6308798;28;20228;-55
2022/09/09 10:31:57;;;;;;;2.80;2.60;;;21.80;1.00;;;;;;6310966;28;20316;-54
2022/09/09 10:35:09;;;;;;;2.90;2.70;;;21.90;1.00;;;;;;6309856;28;20397;-54
2022/09/09 10:38:18;;;;;;;2.80;2.30;;;21.90;1.00;;;;;;6297894;28;20248;-54
2022/09/09 10:41:31;;;;;;;3.10;2.90;;;21.80;1.00;;;;;;6308727;28;20987;-54
2022/09/09 10:44:50;;;;;;;3.00;2.80;;;21.80;1.00;;;;;;6313009;28;20224;-55
2022/09/09 10:48:17;;;;;;;2.40;2.20;;;21.90;1.00;;;;;;6214091;28;20867;-54
2022/09/09 10:51:34;;;;;;;2.30;2.10;;;21.90;1.00;;;;;;6264875;28;20722;-54
2022/09/09 10:54:50;;;;;;;2.17;2.07;;;21.80;1.00;;;;;;6281210;28;20238;-55
2022/09/09 10:57:57;;;;;;;2.40;2.30;;;22.00;1.00;;;;;;6271697;28;20403;-54
2022/09/09 11:01:10;;;;;;;2.53;2.33;;;22.20;1.00;;;;;;6271984;28;20237;-54
2022/09/09 11:04:21;;;;;;;4.87;2.57;;;22.50;1.00;;;;;;6281402;28;20356;-54
2022/09/09 11:07:36;;;;;;;4.13;2.47;;;22.50;1.00;;;;;;6271829;28;20233;-53
2022/09/09 11:10:44;;;;;;;2.33;2.23;;;22.70;1.00;;;;;;6267748;28;20230;-54
2022/09/09 11:13:54;;;;;;;5.03;2.40;;;22.60;1.00;;;;;;6284358;28;20241;-54
2022/09/09 11:17:01;;;;;;;3.50;2.53;;;22.80;1.00;;;;;;6275212;28;20234;-56
2022/09/09 11:20:07;;;;;;;5.00;2.50;;;22.90;1.00;;;;;;6281477;28;20256;-55
2022/09/09 11:23:16;;;;;;;3.80;2.77;;;22.90;1.00;;;;;;6285656;28;20591;-56
2022/09/09 11:26:26;;;;;;;3.13;2.50;;;22.80;1.00;;;;;;6285433;28;20476;-54
2022/09/09 11:30:06;;;;;;;7.67;2.57;;;22.70;1.00;;;;;;6278075;28;20233;-57
2022/09/09 11:33:40;;;;;;;2.80;2.60;;;22.60;1.00;;;;;;6210149;28;20231;-55
2022/09/09 11:37:04;;;;;;;2.93;2.30;;;22.60;1.00;;;;;;6275128;28;20229;-55
2022/09/09 11:40:23;;;;;;;4.10;2.33;;;22.50;1.00;;;;;;6276451;28;20618;-54
2022/09/09 11:43:30;;;;;;;4.67;2.60;;;22.40;1.00;;;;;;6281309;28;20570;-56
2022/09/09 11:46:37;;;;;;;2.67;2.47;;;22.40;1.00;;;;;;6272153;28;20240;-55
2022/09/09 11:49:45;;;;;;;2.23;2.13;;;22.60;1.00;;;;;;6274093;28;20234;-55
2022/09/09 11:52:53;;;;;;;2.30;2.20;;;22.90;1.00;;;;;;6281362;28;20234;-54
2022/09/09 11:56:14;;;;;;;5.50;2.40;;;22.90;1.00;;;;;;6280346;28;20705;-54
2022/09/09 11:59:23;;;;;;;3.07;2.77;;;22.90;1.00;;;;;;6285754;28;20603;-55
2022/09/09 12:02:28;;;;;;;2.47;2.37;;;22.80;1.00;;;;;;6278143;28;20717;-54
2022/09/09 12:05:40;;;;;;;2.70;2.53;;;22.90;1.00;;;;;;6279347;28;20288;-54
2022/09/09 12:08:49;;;;;;;2.03;1.93;;;23.00;1.00;;;;;;6283812;28;20238;-56
2022/09/09 12:11:53;;;;;;;2.13;2.10;;;23.30;1.00;;;;;;6280915;28;20230;-62
2022/09/09 12:15:00;;;;;;;2.40;2.30;;;23.50;1.00;;;;;;6276038;28;20483;-54
2022/09/09 12:18:08;;;;;;;2.63;2.33;;;23.80;1.00;;;;;;6275055;28;20729;-55
2022/09/09 12:21:21;;;;;;;2.63;2.47;;;23.80;1.00;;;;;;6281163;28;20246;-54
2022/09/09 12:24:31;;;;;;;3.77;2.40;;;23.90;1.00;;;;;;6277295;28;20245;-55
2022/09/09 12:27:51;;;;;;;2.33;2.23;;;24.00;1.00;;;;;;6280668;28;20233;-57
2022/09/09 12:31:02;;;;;;;2.23;2.13;;;24.10;1.00;;;;;;6281582;28;20303;-56
2022/09/09 12:34:12;;;;;;;3.00;2.50;;;24.00;1.00;;;;;;6279277;28;20253;-55
2022/09/09 12:37:21;;;;;;;1.90;1.80;;;24.00;1.00;;;;;;6278287;28;20226;-60
2022/09/09 12:40:26;;;;;;;2.17;1.97;;;23.80;1.00;;;;;;6276667;28;20230;-55
2022/09/09 12:43:30;;;;;;;2.30;2.10;;;23.60;1.00;;;;;;6274037;28;20233;-55
2022/09/09 12:46:37;;;;;;;4.10;2.73;;;23.50;1.00;;;;;;6280203;28;20248;-55
2022/09/09 12:49:41;;;;;;;1.93;1.60;;;23.40;1.00;;;;;;6280513;28;20244;-55
2022/09/09 12:52:45;;;;;;;4.40;2.60;;;23.40;1.00;;;;;;6274892;28;20237;-55
2022/09/09 12:55:51;;;;;;;3.13;1.77;;;23.30;1.00;;;;;;6277577;28;20256;-55
2022/09/09 12:58:58;;;;;;;2.13;2.03;;;23.30;1.00;;;;;;6281153;28;20611;-56
2022/09/09 13:02:01;;;;;;;1.93;1.83;;;23.30;1.00;;;;;;6285965;28;20241;-55
2022/09/09 13:05:16;;;;;;;2.10;2.10;;;23.00;1.00;;;;;;6284643;28;20614;-56
2022/09/09 13:08:20;;;;;;;2.73;2.30;;;23.00;1.00;;;;;;6283706;28;20233;-55
2022/09/09 13:11:28;;;;;;;1.70;1.70;;;23.00;1.00;;;;;;6283461;28;20610;-55
2022/09/09 13:14:37;;;;;;;4.23;2.20;;;23.00;1.00;;;;;;6274954;28;20241;-56
2022/09/09 13:17:44;;;;;;;2.07;2.00;;;23.00;1.00;;;;;;6282944;28;20230;-56
2022/09/09 13:20:48;;;;;;;1.83;1.73;;;23.00;1.00;;;;;;6281252;28;20233;-55
2022/09/09 13:23:52;;;;;;;2.23;2.13;;;23.00;1.00;;;;;;6279149;28;20244;-56
2022/09/09 13:26:57;;;;;;;2.33;2.10;;;22.90;1.00;;;;;;6280145;28;20234;-55
2022/09/09 13:30:02;;;;;;;2.50;2.30;;;22.80;1.00;;;;;;6281496;28;20510;-56
2022/09/09 13:33:19;;;;;;;2.20;2.00;;;22.70;1.00;;;;;;6280016;28;20254;-55
2022/09/09 13:36:31;;;;;;;2.67;1.90;;;22.70;1.00;;;;;;6276845;28;20601;-55
2022/09/09 13:39:37;;;;;;;2.37;2.27;;;22.70;1.00;;;;;;6270150;28;20236;-61
2022/09/09 13:42:42;;;;;;;2.33;2.23;;;22.80;1.00;;;;;;6280243;28;20230;-56
2022/09/09 13:45:56;;;;;;;4.07;2.30;;;22.90;1.00;;;;;;6273616;28;21799;-55
2022/09/09 13:49:00;;;;;;;1.90;1.80;;;23.20;1.00;;;;;;6272286;28;20233;-56
2022/09/09 13:52:11;;;;;;;1.93;1.83;;;23.50;1.00;;;;;;6266666;28;20323;-56
2022/09/09 13:55:14;;;;;;;4.77;1.90;;;23.60;1.00;;;;;;6268684;28;20245;-56
2022/09/09 13:58:19;;;;;;;1.97;1.80;;;23.80;1.00;;;;;;6282815;28;20248;-55
2022/09/09 14:01:23;;;;;;;2.43;1.60;;;23.80;1.00;;;;;;6276642;28;20237;-56
2022/09/09 14:04:31;;;;;;;4.23;2.03;;;23.90;1.00;;;;;;6265150;28;20713;-55
2022/09/09 14:07:34;;;;;;;2.70;2.07;;;23.80;1.00;;;;;;6282447;28;20236;-56
2022/09/09 14:10:37;;;;;;;2.40;1.70;;;23.80;1.00;;;;;;6280019;28;20236;-57
2022/09/09 14:13:40;;;;;;;2.40;2.20;;;23.90;1.00;;;;;;6271002;28;20496;-56
2022/09/09 14:16:45;;;;;;;2.40;2.20;;;23.90;1.00;;;;;;6276429;28;20252;-56
2022/09/09 14:19:48;;;;;;;3.50;1.87;;;23.80;1.00;;;;;;6270487;28;20240;-55
2022/09/09 14:22:51;;;;;;;3.30;2.23;;;23.80;1.00;;;;;;6278386;28;20683;-55
2022/09/09 14:25:54;;;;;;;2.87;2.60;;;24.00;1.00;;;;;;6268406;28;20608;-56
2022/09/09 14:28:56;;;;;;;2.47;2.37;;;24.30;1.00;;;;;;6277328;28;20861;-55
2022/09/09 14:32:06;;;;;;;2.00;1.83;;;24.40;1.00;;;;;;6280353;28;20233;-55
2022/09/09 14:35:14;;;;;;;2.43;2.30;;;24.60;1.00;;;;;;6270160;28;20238;-56
2022/09/09 14:38:17;;;;;;;2.13;2.03;;;24.60;1.00;;;;;;6277326;28;20240;-56
2022/09/09 14:41:22;;;;;;;3.07;1.93;;;24.70;1.00;;;;;;6273085;28;20483;-55
2022/09/09 14:44:25;;;;;;;2.60;1.70;;;24.50;1.00;;;;;;6274628;28;20233;-55
2022/09/09 14:47:30;;;;;;;2.57;2.10;;;24.10;1.00;;;;;;6279833;28;20237;-55
2022/09/09 14:50:39;;;;;;;2.40;2.17;;;23.90;1.00;;;;;;6277446;28;20404;-56
2022/09/09 14:53:43;;;;;;;3.30;2.47;;;23.70;1.00;;;;;;6285864;28;20403;-55
2022/09/09 14:56:47;;;;;;;2.40;2.20;;;23.40;1.00;;;;;;6271821;28;20225;-56
2022/09/09 14:59:50;;;;;;;2.97;2.00;;;23.20;1.00;;;;;;6282492;28;20249;-55
2022/09/09 15:02:55;;;;;;;2.50;2.40;;;23.10;1.00;;;;;;6283571;28;20233;-55
2022/09/09 15:05:59;;;;;;;2.00;1.73;;;22.80;1.00;;;;;;6281487;28;20402;-55
2022/09/09 15:09:02;;;;;;;5.00;2.30;;;22.80;1.00;;;;;;6270516;28;20607;-55
2022/09/09 15:12:05;;;;;;;1.80;1.70;;;22.70;1.00;;;;;;6278679;28;20230;-55
2022/09/09 15:15:09;;;;;;;3.10;2.27;;;22.70;1.00;;;;;;6267372;28;20230;-55
2022/09/09 15:18:15;;;;;;;3.13;2.10;;;22.50;1.00;;;;;;6274832;28;20841;-55
2022/09/09 15:21:20;;;;;;;3.60;2.30;;;22.70;1.00;;;;;;6285020;28;20325;-55
2022/09/09 15:24:23;;;;;;;1.90;1.80;;;22.80;1.00;;;;;;6283797;28;20245;-55
2022/09/09 15:27:26;;;;;;;1.90;1.80;;;23.00;1.00;;;;;;6279785;28;20236;-55
2022/09/09 15:30:28;;;;;;;2.13;2.03;;;23.20;1.00;;;;;;6280865;28;20240;-56
2022/09/09 15:33:36;;;;;;;3.07;2.50;;;23.30;1.00;;;;;;6277627;28;20237;-55
2022/09/09 15:36:41;;;;;;;2.33;2.20;;;23.20;1.00;;;;;;6278709;28;20237;-55
2022/09/09 15:39:45;;;;;;;1.97;1.87;;;23.10;1.00;;;;;;6265640;28;20261;-55
2022/09/09 15:42:50;;;;;;;2.07;1.93;;;23.00;1.00;;;;;;6284067;28;20616;-55
2022/09/09 15:46:00;;;;;;;2.83;2.73;;;22.90;1.00;;;;;;6260313;28;20705;-55
2022/09/09 15:49:08;;;;;;;2.30;2.10;;;22.80;1.00;;;;;;6274721;28;20440;-54
2022/09/09 15:52:12;;;;;;;2.33;2.17;;;22.70;1.00;;;;;;6272676;28;20234;-54
2022/09/09 15:55:15;;;;;;;2.33;2.23;;;22.50;1.00;;;;;;6275134;28;20236;-54
2022/09/09 15:58:17;;;;;;;1.87;1.87;;;22.40;1.00;;;;;;6272652;28;20856;-56
2022/09/09 16:01:20;;;;;;;2.17;1.97;;;22.30;1.00;;;;;;6276795;28;20652;-55
2022/09/09 16:04:25;;;;;;;2.00;1.90;;;22.30;1.00;;;;;;6277922;28;20552;-56
2022/09/09 16:07:28;;;;;;;4.60;2.27;;;22.20;1.00;;;;;;6278361;28;20383;-54
2022/09/09 16:10:31;;;;;;;2.57;2.47;;;22.20;1.00;;;;;;6273678;28;20246;-54
2022/09/09 16:13:35;;;;;;;1.77;1.77;;;22.10;1.00;;;;;;6266087;28;20581;-55
2022/09/09 16:16:38;;;;;;;2.77;2.13;;;22.10;1.00;;;;;;6279710;28;20725;-55
2022/09/09 16:19:42;;;;;;;2.13;2.03;;;22.20;1.00;;;;;;6277335;28;20310;-55
2022/09/09 16:22:45;;;;;;;2.10;2.00;;;22.20;1.00;;;;;;6278661;28;20244;-54
2022/09/09 16:25:54;;;;;;;2.30;2.20;;;22.20;1.00;;;;;;6270819;28;20240;-54
2022/09/09 16:29:02;;;;;;;1.97;1.87;;;22.20;1.00;;;;;;6279058;28;20468;-54